Time;durP1;ratioP1;P1;durP2;ratioP2;P2;SDS_P1;SDS_P2;PMS_P1;PMS_P2;Temp;Humidity;BMP_temperature;BMP_pressure;BME280_temperature;BME280_humidity;BME280_pressure;Samples;Min_cycle;Max_cycle;Signal;HPM_P1;HPM_P2
2022/05/06 00:01:58;;;;;;;11.80;9.50;;;;;;;13.22;58.04;100855.43;88199;1274;82406;-62
2022/05/06 00:04:11;;;;;;;11.10;9.30;;;;;;;13.26;58.26;100852.76;87935;1275;311084;-63
2022/05/06 00:06:21;;;;;;;11.50;9.80;;;;;;;13.27;58.30;100851.91;88194;1273;89768;-62
2022/05/06 00:08:30;;;;;;;10.80;9.20;;;;;;;13.30;58.66;100854.54;88175;1274;93899;-62
2022/05/06 00:10:42;;;;;;;10.60;9.50;;;;;;;13.35;58.54;100851.58;88197;1274;78872;-62
2022/05/06 00:12:53;;;;;;;12.10;9.50;;;;;;;13.37;58.53;100849.83;88196;1274;82352;-62
2022/05/06 00:15:04;;;;;;;11.80;9.90;;;;;;;13.39;58.66;100848.89;88208;1274;97430;-61
2022/05/06 00:17:14;;;;;;;11.40;9.50;;;;;;;13.36;58.83;100848.67;88139;1274;87267;-62
2022/05/06 00:19:23;;;;;;;11.50;9.40;;;;;;;13.37;58.86;100847.34;88172;1275;95420;-63
2022/05/06 00:21:32;;;;;;;10.40;9.20;;;;;;;13.36;59.02;100848.77;88212;1274;79223;-63
2022/05/06 00:23:41;;;;;;;11.00;9.40;;;;;;;13.35;59.11;100847.15;88187;1274;82811;-61
2022/05/06 00:25:50;;;;;;;11.80;9.70;;;;;;;13.32;59.28;100844.88;88208;1273;98353;-62
2022/05/06 00:27:59;;;;;;;11.60;9.50;;;;;;;13.32;59.31;100845.66;88177;1277;88723;-62
2022/05/06 00:30:10;;;;;;;11.50;9.80;;;;;;;13.32;59.45;100843.66;88164;1274;93497;-62
2022/05/06 00:32:19;;;;;;;12.50;9.70;;;;;;;13.32;59.59;100847.13;88233;1274;78519;-63
2022/05/06 00:34:28;;;;;;;13.40;9.20;;;;;;;13.31;59.57;100851.54;88171;1274;81007;-64
2022/05/06 00:36:37;;;;;;;11.80;9.00;;;;;;;13.31;59.75;100842.73;88188;1273;97172;-64
2022/05/06 00:38:48;;;;;;;10.80;8.90;;;;;;;13.32;59.96;100841.08;88199;1274;89689;-63
2022/05/06 00:40:58;;;;;;;12.20;8.70;;;;;;;13.31;60.16;100841.16;88168;1274;95442;-63
2022/05/06 00:43:07;;;;;;;12.20;9.40;;;;;;;13.32;60.28;100842.16;88213;1274;81089;-63
2022/05/06 00:45:16;;;;;;;11.10;8.70;;;;;;;13.34;60.43;100841.67;88205;1273;80348;-64
2022/05/06 00:47:29;;;;;;;10.70;9.30;;;;;;;13.36;60.57;100842.97;88185;1274;97329;-64
2022/05/06 00:49:38;;;;;;;12.50;9.60;;;;;;;13.32;60.66;100842.66;88216;1274;88750;-63
2022/05/06 00:51:48;;;;;;;10.00;9.00;;;;;;;13.30;60.76;100839.89;88189;1276;94646;-63
2022/05/06 00:54:01;;;;;;;11.20;9.70;;;;;;;13.32;60.89;100836.05;88114;1276;78393;-64
2022/05/06 00:56:17;;;;;;;11.20;9.30;;;;;;;13.33;60.95;100837.36;88200;1274;80146;-63
2022/05/06 00:58:30;;;;;;;11.50;9.40;;;;;;;13.33;60.93;100840.21;88167;1274;99353;-61
2022/05/06 01:00:39;;;;;;;12.60;9.50;;;;;;;13.32;60.99;100836.02;88227;1274;88913;-62
2022/05/06 01:02:49;;;;;;;15.10;10.40;;;;;;;13.31;61.07;100839.65;88255;1273;94142;-64
2022/05/06 01:04:58;;;;;;;11.60;9.90;;;;;;;13.30;61.24;100844.58;88112;1276;78886;-64
2022/05/06 01:07:10;;;;;;;14.10;10.90;;;;;;;13.30;61.20;100844.06;88276;1273;83025;-64
2022/05/06 01:09:21;;;;;;;11.90;10.00;;;;;;;13.28;61.58;100849.09;88192;1274;98407;-62
2022/05/06 01:11:32;;;;;;;11.30;10.10;;;;;;;13.24;61.57;100850.94;88197;1273;87718;-61
2022/05/06 01:13:46;;;;;;;13.00;10.40;;;;;;;13.26;61.58;100850.37;88157;1274;92739;-62
2022/05/06 01:16:00;;;;;;;11.70;10.50;;;;;;;13.27;61.64;100852.58;88172;1274;80161;-62
2022/05/06 01:18:11;;;;;;;;;;;;;;;13.29;61.82;100856.20;88186;1274;84219;-65
2022/05/06 01:20:23;;;;;;;14.90;10.80;;;;;;;13.30;62.00;100853.63;88169;1274;96957;-65
2022/05/06 01:22:32;;;;;;;14.20;11.40;;;;;;;13.34;61.96;100859.33;88197;1274;87107;-62
2022/05/06 01:24:41;;;;;;;12.70;11.40;;;;;;;13.37;62.28;100856.94;88144;1274;95160;-62
2022/05/06 01:27:03;;;;;;;12.60;11.00;;;;;;;13.38;62.29;100859.66;88135;1276;78825;-60
2022/05/06 01:29:14;;;;;;;12.80;11.00;;;;;;;13.37;62.38;100859.29;88183;1274;82363;-62
2022/05/06 01:31:27;;;;;;;14.10;12.20;;;;;;;13.36;62.37;100860.40;88157;1275;96811;-62
2022/05/06 01:33:41;;;;;;;13.70;11.30;;;;;;;13.34;62.43;100859.84;88198;1274;89829;-63
2022/05/06 01:36:00;;;;;;;15.20;11.70;;;;;;;13.28;62.74;100863.38;88133;1276;95238;-65
2022/05/06 01:38:20;;;;;;;13.90;11.50;;;;;;;13.25;62.79;100859.34;88167;1274;78174;-61
2022/05/06 01:40:32;;;;;;;14.10;11.20;;;;;;;13.22;62.85;100860.60;88151;1276;81989;-62
2022/05/06 01:42:48;;;;;;;12.80;11.40;;;;;;;13.22;62.95;100856.59;88183;1274;99317;-60
2022/05/06 01:44:58;;;;;;;16.20;12.10;;;;;;;13.21;63.04;100852.66;88186;1274;88647;-62
2022/05/06 01:47:18;;;;;;;14.50;12.50;;;;;;;13.23;63.28;100849.64;88142;1274;96102;-62
2022/05/06 01:49:30;;;;;;;14.00;11.70;;;;;;;13.26;63.22;100852.83;88162;1274;80167;-61
2022/05/06 01:51:40;;;;;;;14.70;11.40;;;;;;;13.31;63.42;100859.39;88174;1274;81086;-61
2022/05/06 01:53:52;;;;;;;14.70;11.20;;;;;;;13.32;63.47;100855.85;88106;1277;100291;-62
2022/05/06 01:56:02;;;;;;;14.10;12.00;;;;;;;13.34;63.52;100859.49;88152;1276;87581;-62
2022/05/06 01:58:15;;;;;;;13.30;11.70;;;;;;;13.38;63.51;100863.52;88178;1275;92686;-61
2022/05/06 02:00:25;;;;;;;19.40;12.50;;;;;;;13.38;63.44;100862.33;88181;1274;78279;-61
2022/05/06 02:02:34;;;;;;;13.90;12.40;;;;;;;13.38;63.52;100863.96;88187;1274;81910;-61
2022/05/06 02:07:12;;;;;;;16.90;13.00;;;;;;;13.37;63.75;100869.92;88205;1274;89339;-63
2022/05/06 02:09:21;;;;;;;14.60;13.10;;;;;;;13.36;63.67;100867.36;88152;1274;96201;-64
2022/05/06 02:11:33;;;;;;;15.30;13.20;;;;;;;13.34;63.89;100869.27;88146;1276;79989;-64
2022/05/06 02:13:42;;;;;;;13.80;12.40;;;;;;;13.31;63.79;100874.04;88196;1276;81791;-62
2022/05/06 02:15:51;;;;;;;13.90;12.40;;;;;;;13.27;63.93;100872.30;88165;1275;98432;-62
2022/05/06 02:18:03;;;;;;;15.40;12.20;;;;;;;13.27;64.16;100870.83;88148;1275;89037;-61
2022/05/06 02:20:14;;;;;;;16.30;12.60;;;;;;;13.26;64.22;100871.54;88149;1276;93932;-62
2022/05/06 02:22:27;;;;;;;14.30;12.80;;;;;;;13.27;64.38;100872.58;88203;1274;82241;-61
2022/05/06 02:24:39;;;;;;;13.90;12.40;;;;;;;13.25;64.47;100873.11;88184;1274;81710;-61
2022/05/06 02:26:48;;;;;;;13.90;12.40;;;;;;;13.26;64.65;100866.48;88153;1274;99382;-62
2022/05/06 02:29:00;;;;;;;15.80;12.30;;;;;;;13.25;64.74;100864.40;88180;1275;87423;-64
2022/05/06 02:33:39;;;;;;;14.90;13.20;;;;;;;13.31;65.06;100863.65;88153;1274;78410;-63
2022/05/06 02:35:48;;;;;;;14.70;13.00;;;;;;;13.36;65.04;100868.24;88169;1274;83285;-65
2022/05/06 02:37:57;;;;;;;15.20;13.00;;;;;;;13.37;64.97;100866.50;88183;1274;96218;-63
2022/05/06 02:40:08;;;;;;;15.50;14.00;;;;;;;13.36;65.01;100868.65;88171;1274;89227;-63
2022/05/06 02:42:17;;;;;;;15.30;13.40;;;;;;;13.38;65.16;100867.14;88146;1276;95022;-61
2022/05/06 02:44:26;;;;;;;14.50;12.90;;;;;;;13.37;65.09;100865.66;88117;1276;81752;-61
2022/05/06 02:46:38;;;;;;;18.10;12.60;;;;;;;13.33;65.17;100870.52;88164;1274;83980;-62
2022/05/06 02:48:50;;;;;;;15.60;12.60;;;;;;;13.30;65.14;100873.36;88180;1274;98202;-61
2022/05/06 02:50:59;;;;;;;14.40;12.30;;;;;;;13.28;65.25;100876.32;88161;1274;88183;-61
2022/05/06 02:53:08;;;;;;;15.80;13.80;;;;;;;13.26;65.42;100878.30;88168;1274;95122;-64
2022/05/06 02:55:18;;;;;;;16.00;14.00;;;;;;;13.24;65.54;100876.10;88180;1274;82357;-62
2022/05/06 02:57:27;;;;;;;13.90;12.00;;;;;;;13.26;65.68;100879.13;88168;1274;80995;-62
2022/05/06 02:59:36;;;;;;;14.60;13.20;;;;;;;13.28;65.68;100877.86;88216;1274;97669;-65
2022/05/06 03:01:44;;;;;;;15.70;13.90;;;;;;;13.30;65.70;100878.84;88139;1278;89099;-61
2022/05/06 03:03:53;;;;;;;18.10;14.50;;;;;;;13.35;65.94;100879.21;88192;1274;95182;-63
2022/05/06 03:06:03;;;;;;;18.20;14.30;;;;;;;13.37;65.97;100880.78;88160;1274;78199;-64
2022/05/06 03:08:14;;;;;;;16.60;14.20;;;;;;;13.39;65.90;100882.59;88171;1276;80846;-61
2022/05/06 03:10:23;;;;;;;15.00;13.50;;;;;;;13.37;66.02;100885.66;88156;1274;99206;-61
2022/05/06 03:12:34;;;;;;;15.40;13.80;;;;;;;13.34;65.99;100880.58;88323;1263;88986;-63
2022/05/06 03:14:44;;;;;;;16.40;13.40;;;;;;;13.31;65.99;100881.98;88250;1273;95423;-63
2022/05/06 03:16:56;;;;;;;16.00;13.10;;;;;;;13.27;66.10;100880.95;88270;1271;78960;-63
2022/05/06 03:19:08;;;;;;;15.00;12.70;;;;;;;13.24;66.22;100884.96;88291;1274;81338;-64
2022/05/06 03:21:20;;;;;;;14.40;13.00;;;;;;;13.25;66.45;100882.50;88267;1274;99060;-63
2022/05/06 03:23:30;;;;;;;14.70;13.20;;;;;;;13.26;66.46;100883.69;88263;1274;89271;-62
2022/05/06 03:25:42;;;;;;;15.80;12.70;;;;;;;13.28;66.52;100888.66;88264;1274;94065;-62
2022/05/06 03:28:09;;;;;;;15.30;12.60;;;;;;;13.29;66.67;100889.64;88302;1274;79046;-66
2022/05/06 03:30:22;;;;;;;14.70;12.40;;;;;;;13.29;66.78;100895.27;88250;1274;80019;-62
2022/05/06 03:32:35;;;;;;;15.50;12.40;;;;;;;13.30;66.84;100899.38;88274;1274;97821;-61
2022/05/06 03:34:44;;;;;;;15.90;13.00;;;;;;;13.29;66.92;100903.49;88262;1274;88851;-63
2022/05/06 03:36:55;;;;;;;15.50;13.80;;;;;;;13.26;67.04;100903.55;88299;1274;94821;-62
2022/05/06 03:39:04;;;;;;;13.60;12.30;;;;;;;13.25;67.09;100907.98;88295;1274;80488;-64
2022/05/06 03:41:13;;;;;;;14.80;13.10;;;;;;;13.24;67.20;100906.95;88266;1274;80405;-64
2022/05/06 03:43:23;;;;;;;19.10;13.30;;;;;;;13.24;67.25;100910.88;88242;1274;99682;-65
2022/05/06 03:45:32;;;;;;;14.80;13.00;;;;;;;13.24;67.34;100912.29;88294;1274;88210;-63
2022/05/06 03:47:42;;;;;;;17.40;13.00;;;;;;;13.22;67.41;100908.85;88262;1274;94863;-64
2022/05/06 03:51:20;;;;;;;18.70;13.80;;;;;;;13.20;67.53;100908.38;88278;1274;80856;-63
2022/05/06 03:52:25;;;;;;;17.50;14.70;;;;;;;13.19;67.66;100910.74;88236;1274;83519;-63
2022/05/06 03:54:34;;;;;;;21.30;15.40;;;;;;;13.26;67.82;100916.77;88235;1274;97764;-66
2022/05/06 03:56:43;;;;;;;16.40;14.30;;;;;;;13.32;67.76;100917.25;88291;1273;88460;-64
2022/05/06 03:58:52;;;;;;;17.70;14.80;;;;;;;13.37;67.87;100919.70;88223;1274;95660;-65
2022/05/06 04:01:01;;;;;;;16.10;14.40;;;;;;;13.38;67.98;100923.47;88254;1274;81767;-64
2022/05/06 04:03:14;;;;;;;18.90;13.90;;;;;;;13.43;67.98;100922.54;88322;1274;80567;-60
2022/05/06 04:05:23;;;;;;;16.60;14.20;;;;;;;13.48;68.14;100922.29;88141;1277;98972;-62
2022/05/06 04:07:33;;;;;;;17.90;15.80;;;;;;;13.52;68.12;100924.75;88309;1274;88982;-61
2022/05/06 04:09:42;;;;;;;18.80;15.00;;;;;;;13.56;68.02;100928.08;88272;1274;93430;-61
2022/05/06 04:11:51;;;;;;;16.90;15.30;;;;;;;13.58;68.02;100931.06;88271;1274;77446;-62
2022/05/06 04:13:59;;;;;;;21.00;15.10;;;;;;;13.58;67.90;100932.73;88272;1274;83067;-62
2022/05/06 04:16:12;;;;;;;17.20;15.40;;;;;;;13.57;67.96;100936.02;88266;1274;98198;-63
2022/05/06 04:18:21;;;;;;;16.90;15.10;;;;;;;13.58;68.00;100931.73;88187;1274;89473;-61
2022/05/06 04:25:23;;;;;;;17.90;13.70;;;;;;;13.59;68.21;100937.34;88248;1274;83715;-64
2022/05/06 04:27:35;;;;;;;15.50;13.70;;;;;;;13.61;68.23;100939.08;88278;1273;96789;-63
2022/05/06 04:29:44;;;;;;;17.40;14.50;;;;;;;13.65;68.19;100938.35;88226;1274;89552;-64
2022/05/06 04:31:52;;;;;;;19.20;14.30;;;;;;;13.71;68.29;100943.00;88285;1274;94042;-61
2022/05/06 04:34:01;;;;;;;19.40;15.50;;;;;;;13.78;68.25;100947.36;88248;1274;78116;-62
2022/05/06 04:36:11;;;;;;;16.30;14.60;;;;;;;13.79;68.14;100948.83;88310;1274;83068;-63
2022/05/06 04:38:24;;;;;;;17.20;15.20;;;;;;;13.83;68.06;100948.15;88243;1274;100212;-63
2022/05/06 04:40:36;;;;;;;15.90;14.30;;;;;;;13.86;68.02;100952.77;88288;1274;89471;-64
2022/05/06 04:42:46;;;;;;;21.20;15.80;;;;;;;13.89;68.03;100951.04;88244;1274;95739;-64
2022/05/06 04:44:54;;;;;;;18.40;15.50;;;;;;;13.92;67.99;100954.83;88230;1274;80792;-63
2022/05/06 04:47:07;;;;;;;17.30;15.10;;;;;;;13.96;67.95;100953.17;88273;1274;83009;-63
2022/05/06 04:49:16;;;;;;;17.60;15.00;;;;;;;13.98;68.06;100955.41;88271;1274;99252;-62
2022/05/06 04:51:25;;;;;;;17.20;15.50;;;;;;;14.04;68.01;100956.13;88252;1274;88698;-63
2022/05/06 04:53:34;;;;;;;18.50;14.60;;;;;;;14.09;67.95;100962.52;88246;1274;95189;-62
2022/05/06 04:55:49;;;;;;;16.30;14.50;;;;;;;14.14;68.03;100966.89;88252;1274;80436;-62
2022/05/06 04:57:57;;;;;;;17.20;14.70;;;;;;;14.20;67.96;100968.73;88304;1274;82707;-64
2022/05/06 05:00:09;;;;;;;15.50;13.60;;;;;;;14.31;67.76;100969.56;88226;1273;99585;-64
2022/05/06 05:02:19;;;;;;;16.70;15.00;;;;;;;14.38;67.79;100971.73;88307;1274;87373;-66
2022/05/06 05:04:29;;;;;;;15.30;13.70;;;;;;;14.50;67.66;100970.03;88282;1274;95853;-63
2022/05/06 05:06:38;;;;;;;18.50;14.60;;;;;;;14.62;67.49;100971.06;88273;1274;78146;-64
2022/05/06 05:08:47;;;;;;;16.50;14.60;;;;;;;14.71;67.29;100968.67;88318;1273;82820;-62
2022/05/06 05:11:02;;;;;;;16.60;14.40;;;;;;;14.76;67.00;100964.30;88264;1274;97837;-62
2022/05/06 05:13:12;;;;;;;18.20;14.90;;;;;;;14.88;66.93;100966.06;88310;1274;88313;-66
2022/05/06 05:15:22;;;;;;;16.60;14.30;;;;;;;14.99;66.69;100970.84;88227;1274;95742;-63
2022/05/06 05:17:31;;;;;;;17.70;14.40;;;;;;;15.08;66.46;100968.83;88279;1274;78305;-65
2022/05/06 05:19:41;;;;;;;17.20;15.20;;;;;;;15.11;66.34;100969.91;88279;1274;80723;-64
2022/05/06 05:21:50;;;;;;;17.50;14.10;;;;;;;15.07;66.24;100971.79;88272;1274;97986;-66
2022/05/06 05:24:00;;;;;;;15.90;14.10;;;;;;;15.08;66.00;100971.29;88260;1274;89510;-62
2022/05/06 05:26:12;;;;;;;18.70;14.70;;;;;;;15.12;66.26;100968.00;88302;1273;95743;-61
2022/05/06 05:28:24;;;;;;;17.20;13.60;;;;;;;15.16;66.07;100974.25;88291;1274;79298;-64
2022/05/06 05:30:35;;;;;;;15.40;13.90;;;;;;;15.18;65.96;100979.95;88334;1274;81464;-64
2022/05/06 05:32:44;;;;;;;14.50;13.00;;;;;;;15.23;65.70;100982.43;88248;1274;96835;-63
2022/05/06 05:34:53;;;;;;;15.70;14.00;;;;;;;15.29;65.79;100992.15;88264;1274;88732;-65
2022/05/06 05:37:09;;;;;;;15.40;13.20;;;;;;;15.37;65.55;100993.59;88247;1274;94243;-64
2022/05/06 05:39:17;;;;;;;16.50;11.70;;;;;;;15.47;65.40;100990.05;88296;1274;81012;-62
2022/05/06 05:41:31;;;;;;;14.00;12.40;;;;;;;15.51;65.20;100993.96;88266;1274;83412;-64
2022/05/06 05:48:37;;;;;;;13.30;11.90;;;;;;;15.63;64.73;101000.02;88282;1274;95437;-64
2022/05/06 05:50:46;;;;;;;14.90;11.60;;;;;;;15.66;64.35;101002.66;88280;1274;78380;-62
2022/05/06 05:52:55;;;;;;;15.60;11.60;;;;;;;15.71;64.26;101001.52;88225;1274;83434;-64
2022/05/06 05:55:05;;;;;;;13.20;11.00;;;;;;;15.72;64.08;101002.90;88297;1274;98575;-66
2022/05/06 05:57:13;;;;;;;13.40;11.80;;;;;;;15.75;63.93;101004.17;88318;1272;86861;-65
2022/05/06 05:59:26;;;;;;;13.50;12.10;;;;;;;15.77;63.84;101003.63;88259;1273;95683;-65
2022/05/06 06:01:38;;;;;;;13.00;10.50;;;;;;;15.79;63.70;101007.70;88264;1274;80020;-65
2022/05/06 06:03:49;;;;;;;12.90;10.90;;;;;;;15.84;63.45;101009.34;88296;1274;81632;-63
2022/05/06 06:06:01;;;;;;;12.90;11.10;;;;;;;15.90;63.29;101014.04;88279;1274;99155;-64
2022/05/06 06:08:11;;;;;;;13.20;11.30;;;;;;;15.96;63.04;101011.23;88311;1274;88137;-65
2022/05/06 06:10:21;;;;;;;15.10;10.80;;;;;;;16.03;62.69;101011.39;88305;1271;95564;-64
2022/05/06 06:12:30;;;;;;;13.10;11.10;;;;;;;16.00;62.45;101008.84;88301;1271;78742;-65
2022/05/06 06:14:43;;;;;;;15.00;11.40;;;;;;;15.97;62.35;101006.02;88282;1274;83637;-65
2022/05/06 06:16:56;;;;;;;13.00;10.70;;;;;;;15.94;62.20;101008.84;88317;1271;97847;-63
2022/05/06 06:19:10;;;;;;;12.50;11.20;;;;;;;15.89;62.12;101008.33;88276;1274;86533;-66
2022/05/06 06:21:19;;;;;;;14.90;11.30;;;;;;;15.82;62.07;101013.10;88317;1271;95095;-66
2022/05/06 06:23:34;;;;;;;12.40;10.60;;;;;;;15.74;61.97;101019.71;88305;1271;78631;-65
2022/05/06 06:25:46;;;;;;;12.90;11.20;;;;;;;15.69;61.95;101022.69;88328;1271;83768;-64
2022/05/06 06:28:00;;;;;;;16.40;12.30;;;;;;;15.62;62.10;101024.73;88315;1271;99117;-60
2022/05/06 06:30:12;;;;;;;16.70;11.30;;;;;;;15.50;62.17;101023.91;88302;1271;88981;-62
2022/05/06 06:32:23;;;;;;;13.60;11.10;;;;;;;15.43;62.44;101023.56;88291;1271;95468;-64
2022/05/06 06:34:54;;;;;;;13.70;11.50;;;;;;;15.35;62.43;101020.58;88288;1271;78962;-64
2022/05/06 06:37:28;;;;;;;16.10;11.20;;;;;;;15.33;62.33;101023.27;88307;1271;81510;-65
2022/05/06 06:40:01;;;;;;;;;;;;;;;15.33;62.31;101028.27;88250;1274;98913;-66
2022/05/06 06:42:49;;;;;;;21.90;13.90;;;;;;;15.30;62.40;101034.55;88198;1274;90739;-61
2022/05/06 06:45:28;;;;;;;12.70;11.40;;;;;;;15.29;62.35;101037.17;88118;1276;95926;-64
2022/05/06 06:47:45;;;;;;;12.90;11.30;;;;;;;15.22;62.61;101036.99;88230;1274;80283;-65
2022/05/06 06:50:00;;;;;;;16.80;12.80;;;;;;;15.24;62.69;101036.45;88322;1271;79946;-64
2022/05/06 06:52:10;;;;;;;15.70;12.60;;;;;;;15.26;62.65;101034.04;88233;1274;96438;-65
2022/05/06 06:54:22;;;;;;;14.80;12.20;;;;;;;15.26;62.80;101034.16;88204;1274;90495;-65
2022/05/06 06:56:37;;;;;;;18.90;13.90;;;;;;;15.30;62.95;101037.44;88289;1271;94607;-65
2022/05/06 06:58:46;;;;;;;16.70;12.50;;;;;;;15.34;62.88;101037.20;88298;1271;79797;-61
2022/05/06 07:00:55;;;;;;;13.40;12.00;;;;;;;15.32;62.94;101036.44;88288;1273;81292;-62
2022/05/06 07:03:08;;;;;;;88.10;68.60;;;;;;;15.32;62.98;101033.47;88281;1273;99264;-65
2022/05/06 07:05:19;;;;;;;27.30;22.50;;;;;;;15.40;62.83;101035.20;88330;1271;87763;-65
2022/05/06 07:12:25;;;;;;;12.90;11.60;;;;;;;15.60;62.92;101042.11;88335;1271;81336;-64
2022/05/06 07:14:35;;;;;;;14.60;12.80;;;;;;;15.63;62.91;101042.04;88297;1271;99606;-64
2022/05/06 07:16:45;;;;;;;14.20;12.70;;;;;;;15.70;62.98;101041.21;88210;1273;88825;-66
2022/05/06 07:18:55;;;;;;;14.40;12.20;;;;;;;15.84;62.86;101043.16;88278;1274;94267;-62
2022/05/06 07:21:07;;;;;;;14.30;12.70;;;;;;;16.01;62.79;101037.48;88295;1271;80582;-67
2022/05/06 07:23:17;;;;;;;19.20;12.90;;;;;;;16.19;62.69;101047.08;88304;1271;80991;-68
2022/05/06 07:25:29;;;;;;;13.90;12.40;;;;;;;16.49;62.74;101045.96;88308;1273;98632;-62
2022/05/06 07:27:43;;;;;;;15.00;12.80;;;;;;;17.07;62.77;101048.98;88327;1271;88253;-63
2022/05/06 07:29:52;;;;;;;15.00;13.00;;;;;;;17.83;62.59;101047.25;88252;1273;95548;-66
2022/05/06 07:32:02;;;;;;;15.50;12.50;;;;;;;18.52;61.66;101043.34;88282;1271;81002;-62
2022/05/06 07:34:15;;;;;;;13.50;12.00;;;;;;;19.02;60.85;101048.03;88283;1273;81975;-64
2022/05/06 07:36:26;;;;;;;;;;;;;;;19.63;60.24;101045.74;88324;1271;97694;-64
2022/05/06 07:38:38;;;;;;;13.10;11.70;;;;;;;20.42;59.76;101045.83;88313;1270;88795;-66
2022/05/06 07:40:47;;;;;;;13.60;11.70;;;;;;;21.92;58.92;101044.44;88273;1274;94234;-64
2022/05/06 07:42:56;;;;;;;13.10;11.90;;;;;;;23.61;57.67;101044.66;88280;1271;78560;-65
2022/05/06 07:45:07;;;;;;;12.60;11.50;;;;;;;24.30;54.82;101043.48;88290;1271;80772;-63
2022/05/06 07:47:19;;;;;;;11.60;10.40;;;;;;;24.29;53.83;101046.58;88299;1273;97332;-70
2022/05/06 07:49:28;;;;;;;12.50;11.20;;;;;;;25.01;53.32;101045.19;88299;1271;89103;-69
2022/05/06 07:51:40;;;;;;;12.40;10.80;;;;;;;25.58;51.55;101048.48;88300;1273;94958;-71
2022/05/06 07:53:51;;;;;;;10.80;9.70;;;;;;;26.77;50.57;101042.14;88303;1271;78404;-72
2022/05/06 07:56:01;;;;;;;12.20;10.80;;;;;;;27.55;48.80;101045.59;88298;1271;83733;-69
2022/05/06 07:58:10;;;;;;;14.10;10.90;;;;;;;27.85;46.58;101049.64;88286;1274;98340;-63
2022/05/06 08:00:24;;;;;;;11.90;10.50;;;;;;;27.26;45.78;101050.09;88333;1271;89177;-63
2022/05/06 08:05:02;;;;;;;12.20;10.90;;;;;;;25.81;44.58;101049.82;87937;1271;78739;-62
2022/05/06 08:07:11;;;;;;;12.80;11.50;;;;;;;25.41;44.83;101052.46;88274;1274;80812;-63
2022/05/06 08:09:25;;;;;;;14.20;10.70;;;;;;;25.31;44.60;101057.90;88278;1271;98086;-63
2022/05/06 08:11:36;;;;;;;11.30;10.20;;;;;;;25.24;44.54;101059.26;88315;1271;87262;-65
2022/05/06 08:13:45;;;;;;;13.10;11.70;;;;;;;25.18;44.79;101054.58;88245;1274;93407;-63
2022/05/06 08:15:57;;;;;;;12.60;11.40;;;;;;;24.92;45.15;101049.52;88306;1271;78705;-63
2022/05/06 08:18:06;;;;;;;12.30;11.10;;;;;;;25.07;45.13;101054.41;88301;1271;83545;-63
2022/05/06 08:20:17;;;;;;;14.10;10.80;;;;;;;25.64;45.19;101056.27;88273;1273;99420;-66
2022/05/06 08:22:25;;;;;;;13.30;11.90;;;;;;;26.47;44.51;101051.39;88321;1271;88591;-65
2022/05/06 08:24:37;;;;;;;12.30;10.70;;;;;;;27.14;43.88;101044.83;88268;1270;95370;-66
2022/05/06 08:26:50;;;;;;;12.20;11.00;;;;;;;28.24;43.19;101042.48;88247;1273;79869;-65
2022/05/06 08:28:58;;;;;;;11.80;10.60;;;;;;;29.04;41.68;101040.54;88315;1271;81915;-64
2022/05/06 08:31:07;;;;;;;12.10;10.60;;;;;;;29.13;40.73;101043.65;88242;1273;98486;-65
2022/05/06 08:33:19;;;;;;;11.60;10.40;;;;;;;28.65;40.02;101048.01;88313;1271;87196;-64
2022/05/06 08:35:28;;;;;;;11.60;10.40;;;;;;;28.25;40.09;101044.88;88261;1274;95146;-63
2022/05/06 08:37:46;;;;;;;11.80;10.70;;;;;;;28.08;39.66;101045.45;88303;1271;81296;-65
2022/05/06 08:39:58;;;;;;;13.00;11.90;;;;;;;27.60;39.29;101047.30;88274;1273;82068;-65
2022/05/06 08:42:11;;;;;;;12.00;10.70;;;;;;;26.95;39.55;101045.54;88309;1271;98182;-64
2022/05/06 08:51:57;;;;;;;13.50;10.80;;;;;;;27.79;40.23;101051.84;88285;1273;82019;-64
2022/05/06 08:54:11;;;;;;;12.30;11.00;;;;;;;28.48;39.61;101048.12;88306;1271;98919;-66
2022/05/06 08:56:21;;;;;;;11.60;10.50;;;;;;;29.11;39.05;101046.29;88282;1274;88682;-65
2022/05/06 08:58:34;;;;;;;11.50;10.50;;;;;;;29.80;38.10;101049.73;88299;1271;93080;-66
2022/05/06 09:00:43;;;;;;;11.10;10.10;;;;;;;30.24;37.33;101046.61;88258;1274;78372;-63
2022/05/06 09:02:54;;;;;;;11.40;9.80;;;;;;;30.34;36.76;101047.14;88285;1272;82186;-65
2022/05/06 09:05:14;;;;;;;13.40;10.50;;;;;;;30.20;36.40;101043.08;88277;1273;97843;-63
2022/05/06 09:07:25;;;;;;;11.30;10.30;;;;;;;30.28;35.85;101045.98;88277;1271;89684;-65
2022/05/06 09:09:37;;;;;;;10.80;9.70;;;;;;;30.18;36.03;101042.32;88285;1274;94916;-64
2022/05/06 09:17:18;;;;;;;10.70;9.50;;;;;;;29.30;36.28;101041.69;88249;1274;98288;-60
2022/05/06 09:19:31;;;;;;;10.60;9.60;;;;;;;29.45;36.28;101045.52;88305;1271;88078;-62
2022/05/06 09:22:09;;;;;;;12.40;11.10;;;;;;;29.53;35.98;101044.73;88226;1273;92634;-61
2022/05/06 09:24:22;;;;;;;12.70;11.50;;;;;;;29.20;35.85;101043.58;88299;1271;79260;-60
2022/05/06 09:26:32;;;;;;;10.60;9.50;;;;;;;28.98;35.92;101045.48;88326;1271;80681;-61
2022/05/06 09:28:41;;;;;;;11.50;10.40;;;;;;;28.96;36.16;101046.45;88256;1273;99384;-61
2022/05/06 09:31:04;;;;;;;11.60;10.50;;;;;;;28.69;36.08;101045.25;88282;1271;88945;-64
2022/05/06 09:33:24;;;;;;;;;;;;;;;28.35;36.14;101043.23;88311;1271;93023;-62
2022/05/06 09:35:36;;;;;;;11.10;10.00;;;;;;;27.82;36.31;101050.55;88259;1273;79756;-61
2022/05/06 09:37:48;;;;;;;11.40;10.30;;;;;;;27.24;36.43;101045.66;88309;1271;82838;-67
2022/05/06 09:40:07;;;;;;;11.90;10.70;;;;;;;26.77;36.98;101043.53;88298;1271;98936;-67
2022/05/06 09:42:26;;;;;;;11.80;10.70;;;;;;;26.43;37.55;101049.55;88261;1273;87861;-62
2022/05/06 09:44:38;;;;;;;12.30;11.30;;;;;;;26.08;37.77;101047.48;88184;1273;97068;-63
2022/05/06 09:47:07;;;;;;;12.50;11.30;;;;;;;26.08;37.92;101046.21;88260;1273;79860;-62
2022/05/06 09:49:17;;;;;;;11.80;10.50;;;;;;;26.36;38.16;101042.14;88319;1271;81719;-63
2022/05/06 09:51:35;;;;;;;11.20;10.00;;;;;;;26.56;38.20;101039.46;88313;1271;99328;-63
2022/05/06 09:53:47;;;;;;;10.20;9.20;;;;;;;26.66;38.37;101036.61;88338;1271;88669;-62
2022/05/06 09:55:57;;;;;;;10.00;9.10;;;;;;;26.47;37.88;101038.47;88300;1271;94265;-62
2022/05/06 09:58:10;;;;;;;11.20;8.90;;;;;;;26.05;37.85;101043.72;88255;1273;79626;-65
2022/05/06 10:00:22;;;;;;;10.10;9.10;;;;;;;26.07;38.23;101044.27;88310;1271;83494;-64
2022/05/06 10:02:31;;;;;;;10.70;9.70;;;;;;;26.16;38.21;101040.81;88284;1273;99397;-63
2022/05/06 10:04:42;;;;;;;11.00;9.90;;;;;;;26.17;38.34;101041.96;88265;1274;90391;-64
2022/05/06 10:06:53;;;;;;;11.50;10.40;;;;;;;25.80;38.55;101047.66;88265;1274;95227;-64
2022/05/06 10:09:04;;;;;;;10.40;9.20;;;;;;;25.41;38.75;101045.89;88333;1271;79554;-62
2022/05/06 10:11:19;;;;;;;10.50;9.50;;;;;;;25.28;38.97;101050.75;88293;1273;83216;-64
2022/05/06 10:13:32;;;;;;;10.60;9.30;;;;;;;25.17;39.23;101048.83;88272;1273;96822;-63
2022/05/06 10:15:41;;;;;;;11.90;10.50;;;;;;;25.12;39.55;101048.68;88312;1271;87394;-65
2022/05/06 10:17:56;;;;;;;10.90;9.10;;;;;;;25.01;39.94;101043.27;88243;1271;95914;-63
2022/05/06 10:20:06;;;;;;;11.30;10.10;;;;;;;24.99;40.19;101048.34;88297;1271;80476;-63
2022/05/06 10:22:15;;;;;;;11.10;9.90;;;;;;;24.94;40.15;101049.98;88316;1271;80928;-63
2022/05/06 10:24:25;;;;;;;10.60;9.70;;;;;;;24.94;40.42;101051.02;88257;1273;99235;-64
2022/05/06 10:26:48;;;;;;;11.70;10.60;;;;;;;24.95;40.44;101050.36;88316;1273;87045;-65
2022/05/06 10:34:15;;;;;;;11.60;9.70;;;;;;;24.84;40.45;101053.45;88302;1271;83236;-63
2022/05/06 10:36:45;;;;;;;11.20;10.10;;;;;;;24.54;40.78;101054.98;88258;1273;97884;-64
2022/05/06 10:38:54;;;;;;;12.50;10.80;;;;;;;24.38;41.09;101055.26;88310;1271;89313;-64
2022/05/06 10:41:11;;;;;;;11.80;10.80;;;;;;;24.34;41.28;101054.55;88310;1271;94839;-65
2022/05/06 10:43:53;;;;;;;11.70;10.60;;;;;;;24.43;41.49;101050.95;88272;1273;78231;-63